createdAt,value
2023-05-06T00:00:12.914Z,19.51
2023-05-06T00:02:39.355Z,19.52
2023-05-06T00:05:05.859Z,19.54
2023-05-06T00:07:32.266Z,19.53
2023-05-06T00:09:58.649Z,19.44
2023-05-06T00:12:25.002Z,19.31
2023-05-06T00:14:51.340Z,19.30
2023-05-06T00:17:17.697Z,19.30
2023-05-06T00:19:44.032Z,19.29
2023-05-06T00:22:10.370Z,19.37
2023-05-06T00:24:36.754Z,19.36
2023-05-06T00:27:03.095Z,19.31
2023-05-06T00:29:29.437Z,19.30
2023-05-06T00:31:55.846Z,19.24
2023-05-06T00:34:22.317Z,19.20
2023-05-06T00:36:48.661Z,18.99
2023-05-06T00:39:15.124Z,18.87
2023-05-06T00:41:41.500Z,18.84
2023-05-06T00:44:07.853Z,18.83
2023-05-06T00:46:34.242Z,18.88
2023-05-06T00:49:00.641Z,18.72
2023-05-06T00:51:26.999Z,18.72
2023-05-06T00:53:53.353Z,18.66
2023-05-06T00:56:20.854Z,18.56
2023-05-06T00:58:47.297Z,18.54
2023-05-06T01:01:13.710Z,18.37
2023-05-06T01:03:40.257Z,18.24
2023-05-06T01:06:06.679Z,18.33
2023-05-06T01:08:33.053Z,18.42
2023-05-06T01:10:59.447Z,18.49
2023-05-06T01:13:25.845Z,18.55
2023-05-06T01:15:52.235Z,18.59
2023-05-06T01:18:18.641Z,18.67
2023-05-06T01:20:44.989Z,18.68
2023-05-06T01:23:11.365Z,18.63
2023-05-06T01:25:37.768Z,18.61
2023-05-06T01:28:04.163Z,18.64
2023-05-06T01:30:30.523Z,18.58
2023-05-06T01:32:56.902Z,18.53
2023-05-06T01:35:23.297Z,18.37
2023-05-06T01:37:49.882Z,18.33
2023-05-06T01:40:16.271Z,18.34
2023-05-06T01:42:42.661Z,18.28
2023-05-06T01:45:09.146Z,18.19
2023-05-06T01:47:35.681Z,17.99
2023-05-06T01:50:02.097Z,17.98
2023-05-06T01:52:28.437Z,18.04
2023-05-06T01:54:54.837Z,18.08
2023-05-06T01:57:21.187Z,18.10
2023-05-06T01:59:47.536Z,18.09
2023-05-06T02:02:13.876Z,18.09
2023-05-06T02:04:40.256Z,18.03
2023-05-06T02:07:07.767Z,18.02
2023-05-06T02:09:34.111Z,17.91
2023-05-06T02:12:00.492Z,17.91
2023-05-06T02:14:26.881Z,17.96
2023-05-06T02:16:53.270Z,17.84
2023-05-06T02:19:19.652Z,17.73
2023-05-06T02:21:45.999Z,17.65
2023-05-06T02:24:12.391Z,17.69
2023-05-06T02:26:38.743Z,17.70
2023-05-06T02:29:05.126Z,17.70
2023-05-06T02:31:31.561Z,17.60
2023-05-06T02:33:57.965Z,17.75
2023-05-06T02:36:24.315Z,17.58
2023-05-06T02:38:50.684Z,17.55
2023-05-06T02:41:17.024Z,17.43
2023-05-06T02:43:43.418Z,17.40
2023-05-06T02:46:09.893Z,17.44
2023-05-06T02:48:36.290Z,17.56
2023-05-06T02:51:02.708Z,17.51
2023-05-06T02:53:29.097Z,17.52
2023-05-06T02:55:55.449Z,17.58
2023-05-06T02:58:21.842Z,17.26
2023-05-06T03:00:48.310Z,17.32
2023-05-06T03:03:14.667Z,17.40
2023-05-06T03:05:41.041Z,17.42
2023-05-06T03:08:07.436Z,17.40
2023-05-06T03:10:33.904Z,17.35
2023-05-06T03:13:00.295Z,17.31
2023-05-06T03:15:26.722Z,17.34
2023-05-06T03:17:53.185Z,17.35
2023-05-06T03:20:19.672Z,17.35
2023-05-06T03:22:46.063Z,17.39
2023-05-06T03:25:12.621Z,17.31
2023-05-06T03:27:39.075Z,17.21
2023-05-06T03:30:05.453Z,17.20
2023-05-06T03:32:31.844Z,17.11
2023-05-06T03:34:58.256Z,17.14
2023-05-06T03:37:24.636Z,17.00
2023-05-06T03:39:51.008Z,17.02
2023-05-06T03:42:17.454Z,17.01
2023-05-06T03:44:43.845Z,16.99
2023-05-06T03:47:10.213Z,16.83
2023-05-06T03:49:36.606Z,16.82
2023-05-06T03:52:02.946Z,16.80
2023-05-06T03:54:29.332Z,16.84
2023-05-06T03:56:55.734Z,16.78
2023-05-06T03:59:22.135Z,16.70
2023-05-06T04:01:48.564Z,16.57
2023-05-06T04:04:14.943Z,16.73
2023-05-06T04:06:41.335Z,16.81
2023-05-06T04:09:07.719Z,16.81
2023-05-06T04:11:34.064Z,16.82
2023-05-06T04:14:00.456Z,16.83
2023-05-06T04:16:26.863Z,16.83
2023-05-06T04:18:53.407Z,16.86
2023-05-06T04:21:19.780Z,16.81
2023-05-06T04:23:46.132Z,16.73
2023-05-06T04:26:12.478Z,16.67
2023-05-06T04:28:38.851Z,16.72
2023-05-06T04:31:05.234Z,16.82
2023-05-06T04:33:31.603Z,16.82
2023-05-06T04:35:57.952Z,16.92
2023-05-06T04:38:24.300Z,16.80
2023-05-06T04:40:50.673Z,16.94
2023-05-06T04:43:17.018Z,16.94
2023-05-06T04:45:43.431Z,17.00
2023-05-06T04:48:09.969Z,17.07
2023-05-06T04:50:36.378Z,17.08
2023-05-06T04:53:02.717Z,17.05
2023-05-06T04:55:29.092Z,17.13
2023-05-06T04:57:55.493Z,17.16
2023-05-06T05:00:21.882Z,17.23
2023-05-06T05:02:48.404Z,17.17
2023-05-06T05:05:14.887Z,17.12
2023-05-06T05:07:41.291Z,17.12
2023-05-06T05:10:07.673Z,17.03
2023-05-06T05:12:34.105Z,17.02
2023-05-06T05:15:00.483Z,16.97
2023-05-06T05:17:26.851Z,16.98
2023-05-06T05:19:53.207Z,16.99
2023-05-06T05:22:19.541Z,17.01
2023-05-06T05:24:45.943Z,16.90
2023-05-06T05:27:12.350Z,16.89
2023-05-06T05:29:38.752Z,16.80
2023-05-06T05:32:05.142Z,16.90
2023-05-06T05:34:31.498Z,16.82
2023-05-06T05:36:57.884Z,16.88
2023-05-06T05:39:24.243Z,16.98
2023-05-06T05:41:50.632Z,16.93
2023-05-06T05:44:17.020Z,17.02
2023-05-06T05:46:43.438Z,17.07
2023-05-06T05:49:09.887Z,17.14
2023-05-06T05:51:36.221Z,17.31
2023-05-06T05:54:02.566Z,17.31
2023-05-06T05:56:28.949Z,17.42
2023-05-06T05:58:55.355Z,17.36
2023-05-06T06:01:21.753Z,17.42
2023-05-06T06:03:48.190Z,17.45
2023-05-06T06:06:14.622Z,17.34
2023-05-06T06:08:40.957Z,17.52
2023-05-06T06:11:07.350Z,17.60
2023-05-06T06:13:33.762Z,17.73
2023-05-06T06:16:00.221Z,17.73
2023-05-06T06:18:26.584Z,17.64
2023-05-06T06:20:53.596Z,17.78
2023-05-06T06:23:20.137Z,17.90
2023-05-06T06:25:46.526Z,18.08
2023-05-06T06:28:12.910Z,18.23
2023-05-06T06:30:39.263Z,18.18
2023-05-06T06:33:05.695Z,18.19
2023-05-06T06:35:32.105Z,18.25
2023-05-06T06:37:58.493Z,18.22
2023-05-06T06:40:24.847Z,18.34
2023-05-06T06:42:51.319Z,18.36
2023-05-06T06:45:17.676Z,18.42
2023-05-06T06:47:44.140Z,18.47
2023-05-06T06:50:10.555Z,18.58
2023-05-06T06:52:36.921Z,18.73
2023-05-06T06:55:03.273Z,18.53
2023-05-06T06:57:29.621Z,18.52
2023-05-06T06:59:56.002Z,18.56
2023-05-06T07:02:22.360Z,18.48
2023-05-06T07:04:48.720Z,18.62
2023-05-06T07:07:15.079Z,18.59
2023-05-06T07:09:41.489Z,18.60
2023-05-06T07:12:07.875Z,18.52
2023-05-06T07:14:34.233Z,18.56
2023-05-06T07:17:00.620Z,18.62
2023-05-06T07:19:27.060Z,18.69
2023-05-06T07:21:53.450Z,18.65
2023-05-06T07:24:19.843Z,18.76
2023-05-06T07:26:46.232Z,18.79
2023-05-06T07:29:12.720Z,18.73
2023-05-06T07:31:39.207Z,18.69
2023-05-06T07:34:05.573Z,18.80
2023-05-06T07:36:31.915Z,18.92
2023-05-06T07:38:58.251Z,18.90
2023-05-06T07:41:24.587Z,18.84
2023-05-06T07:43:50.959Z,18.96
2023-05-06T07:46:17.391Z,19.05
2023-05-06T07:48:43.807Z,19.04
2023-05-06T07:51:10.219Z,18.82
2023-05-06T07:53:36.638Z,18.97
2023-05-06T07:56:03.067Z,19.07
2023-05-06T07:58:29.419Z,19.09
2023-05-06T08:00:55.748Z,19.23
2023-05-06T08:03:22.270Z,19.38
2023-05-06T08:05:48.771Z,19.24
2023-05-06T08:08:15.159Z,19.35
2023-05-06T08:10:41.561Z,19.51
2023-05-06T08:13:08.060Z,19.60
2023-05-06T08:15:34.493Z,19.56
2023-05-06T08:18:13.684Z,19.64
2023-05-06T08:20:44.660Z,19.78
2023-05-06T08:23:11.083Z,19.85
2023-05-06T08:25:37.465Z,19.91
2023-05-06T08:28:03.854Z,19.93
2023-05-06T08:30:30.261Z,20.00
2023-05-06T08:32:56.655Z,19.95
2023-05-06T08:35:23.052Z,20.09
2023-05-06T08:37:49.433Z,20.16
2023-05-06T08:40:15.831Z,20.31
2023-05-06T08:42:42.203Z,20.31
2023-05-06T08:45:08.749Z,20.25
2023-05-06T08:47:35.283Z,20.34
2023-05-06T08:50:01.713Z,20.40
2023-05-06T08:52:28.117Z,20.56
2023-05-06T08:54:54.474Z,20.60
2023-05-06T08:57:20.863Z,20.75
2023-05-06T08:59:47.219Z,20.88
2023-05-06T09:02:13.636Z,20.91
2023-05-06T09:04:40.094Z,20.95
2023-05-06T09:07:06.441Z,21.04
2023-05-06T09:09:32.814Z,21.21
2023-05-06T09:11:59.206Z,21.26
2023-05-06T09:14:25.555Z,21.39
2023-05-06T09:16:51.960Z,21.47
2023-05-06T09:19:18.384Z,21.52
2023-05-06T09:21:44.739Z,21.49
2023-05-06T09:24:11.129Z,21.59
2023-05-06T09:26:37.488Z,21.58
2023-05-06T09:29:03.870Z,21.47
2023-05-06T09:31:30.403Z,21.47
2023-05-06T09:33:56.807Z,21.47
2023-05-06T09:36:23.160Z,21.51
2023-05-06T09:38:49.600Z,21.60
2023-05-06T09:41:16.013Z,21.63
2023-05-06T09:43:42.375Z,21.63
2023-05-06T09:46:08.876Z,21.81
2023-05-06T09:48:35.340Z,21.70
2023-05-06T09:51:01.706Z,21.79
2023-05-06T09:53:28.075Z,21.80
2023-05-06T09:55:54.422Z,21.79
2023-05-06T09:58:20.815Z,21.66
2023-05-06T10:00:47.214Z,21.61
2023-05-06T10:03:13.729Z,21.71
2023-05-06T10:05:40.189Z,21.64
2023-05-06T10:08:06.556Z,21.76
2023-05-06T10:10:32.928Z,21.80
2023-05-06T10:12:59.308Z,21.85
2023-05-06T10:15:25.778Z,21.85
2023-05-06T10:17:52.246Z,21.88
2023-05-06T10:20:18.654Z,21.78
2023-05-06T10:22:45.054Z,21.89
2023-05-06T10:25:11.531Z,21.91
2023-05-06T10:27:38.111Z,21.92
2023-05-06T10:30:04.508Z,21.94
2023-05-06T10:32:30.946Z,21.92
2023-05-06T10:34:57.319Z,21.99
2023-05-06T10:37:23.710Z,22.16
2023-05-06T10:39:50.098Z,22.14
2023-05-06T10:42:16.489Z,22.20
2023-05-06T10:44:43.686Z,22.31
2023-05-06T10:47:11.378Z,22.33
2023-05-06T10:49:37.724Z,22.30
2023-05-06T10:52:04.076Z,22.47
2023-05-06T10:54:30.457Z,22.58
2023-05-06T10:56:56.801Z,22.68
2023-05-06T10:59:23.441Z,22.56
2023-05-06T11:01:49.806Z,22.58
2023-05-06T11:04:16.150Z,22.67
2023-05-06T11:06:42.518Z,22.72
2023-05-06T11:09:08.914Z,22.97
2023-05-06T11:11:35.305Z,22.95
2023-05-06T11:14:01.655Z,22.83
2023-05-06T11:16:28.105Z,22.75
2023-05-06T11:18:54.485Z,22.90
2023-05-06T11:21:20.833Z,22.92
2023-05-06T11:23:47.210Z,23.08
2023-05-06T11:26:13.612Z,23.21
2023-05-06T11:28:39.953Z,23.32
2023-05-06T11:31:06.373Z,23.40
2023-05-06T11:33:32.761Z,23.32
2023-05-06T11:35:59.107Z,23.35
2023-05-06T11:38:25.500Z,23.39
2023-05-06T11:40:51.921Z,23.42
2023-05-06T11:43:18.331Z,23.43
2023-05-06T11:45:44.726Z,23.34
2023-05-06T11:48:11.090Z,23.46
2023-05-06T11:50:37.476Z,23.37
2023-05-06T11:53:03.815Z,23.48
2023-05-06T11:55:30.158Z,23.63
2023-05-06T11:57:56.494Z,23.61
2023-05-06T12:00:22.842Z,23.68
2023-05-06T12:02:49.331Z,23.77
2023-05-06T12:05:15.826Z,23.72
2023-05-06T12:07:42.175Z,23.82
2023-05-06T12:10:08.726Z,23.82
2023-05-06T12:12:35.362Z,23.85
2023-05-06T12:15:01.785Z,24.01
2023-05-06T12:17:28.165Z,24.16
2023-05-06T12:19:54.542Z,24.12
2023-05-06T12:22:20.906Z,24.14
2023-05-06T12:24:47.299Z,24.24
2023-05-06T12:27:13.690Z,24.36
2023-05-06T12:29:40.101Z,24.55
2023-05-06T12:32:06.549Z,24.63
2023-05-06T12:34:32.956Z,24.52
2023-05-06T12:36:59.342Z,24.55
2023-05-06T12:39:25.736Z,24.41
2023-05-06T12:41:52.091Z,24.48
2023-05-06T12:44:18.465Z,24.57
2023-05-06T12:46:44.852Z,24.64
2023-05-06T12:49:11.192Z,24.80
2023-05-06T12:51:37.571Z,24.79
2023-05-06T12:54:03.917Z,24.93
2023-05-06T12:56:30.307Z,24.96
2023-05-06T12:58:56.657Z,25.12
2023-05-06T13:01:23.109Z,25.27
2023-05-06T13:03:49.576Z,25.26
2023-05-06T13:06:16.002Z,25.31
2023-05-06T13:08:42.353Z,25.35
2023-05-06T13:11:08.734Z,25.36
2023-05-06T13:13:35.124Z,25.29
2023-05-06T13:16:01.487Z,25.31
2023-05-06T13:18:27.895Z,25.34
2023-05-06T13:20:54.273Z,25.35
2023-05-06T13:23:20.680Z,25.48
2023-05-06T13:26:02.939Z,25.62
2023-05-06T13:28:30.957Z,25.66
2023-05-06T13:30:57.361Z,25.86
2023-05-06T13:33:23.782Z,25.71
2023-05-06T13:35:50.135Z,25.86
2023-05-06T13:38:16.525Z,26.13
2023-05-06T13:40:42.876Z,26.30
2023-05-06T13:43:09.232Z,26.13
2023-05-06T13:45:35.616Z,26.28
2023-05-06T13:48:02.020Z,26.24
2023-05-06T13:50:28.432Z,26.51
2023-05-06T13:52:54.804Z,26.68
2023-05-06T13:55:21.191Z,26.14
2023-05-06T13:57:47.544Z,26.02
2023-05-06T14:00:13.934Z,26.11
2023-05-06T14:02:40.388Z,25.83
2023-05-06T14:05:06.829Z,25.57
2023-05-06T14:07:33.238Z,25.43
2023-05-06T14:09:59.588Z,25.14
2023-05-06T14:12:25.928Z,25.05
2023-05-06T14:14:52.297Z,24.97
2023-05-06T14:17:20.494Z,24.79
2023-05-06T14:19:46.878Z,24.53
2023-05-06T14:22:13.296Z,24.36
2023-05-06T14:24:39.654Z,24.21
2023-05-06T14:27:06.060Z,24.00
2023-05-06T14:29:32.426Z,23.87
2023-05-06T14:31:58.976Z,23.75
2023-05-06T14:34:25.431Z,23.72
2023-05-06T14:36:51.808Z,23.66
2023-05-06T14:39:18.312Z,23.72
2023-05-06T14:41:44.705Z,23.80
2023-05-06T14:44:11.109Z,23.90
2023-05-06T14:46:37.510Z,24.03
2023-05-06T14:49:03.855Z,24.06
2023-05-06T14:51:30.208Z,24.12
2023-05-06T14:53:56.579Z,23.91
2023-05-06T14:56:22.929Z,23.96
2023-05-06T14:58:49.306Z,23.78
2023-05-06T15:01:15.662Z,23.66
2023-05-06T15:03:42.017Z,23.58
2023-05-06T15:06:08.435Z,23.43
2023-05-06T15:08:35.061Z,23.41
2023-05-06T15:11:03.641Z,23.25
2023-05-06T15:13:30.496Z,22.94
2023-05-06T15:15:56.861Z,22.58
2023-05-06T15:18:23.242Z,22.59
2023-05-06T15:20:49.632Z,22.98
2023-05-06T15:23:15.987Z,23.16
2023-05-06T15:25:42.654Z,23.34
2023-05-06T15:28:09.019Z,23.37
2023-05-06T15:30:35.367Z,23.58
2023-05-06T15:33:01.914Z,23.65
2023-05-06T15:35:28.363Z,23.94
2023-05-06T15:37:54.697Z,23.96
2023-05-06T15:40:21.062Z,23.93
2023-05-06T15:42:47.401Z,23.89
2023-05-06T15:45:13.782Z,23.84
2023-05-06T15:47:40.319Z,23.88
2023-05-06T15:50:16.549Z,23.90
2023-05-06T15:52:51.478Z,23.90
2023-05-06T15:55:19.032Z,23.94
2023-05-06T15:57:45.859Z,24.02
2023-05-06T16:00:12.507Z,24.08
2023-05-06T16:02:39.302Z,24.26
2023-05-06T16:05:05.894Z,24.43
2023-05-06T16:07:32.398Z,24.83
2023-05-06T16:09:58.878Z,24.85
2023-05-06T16:12:25.237Z,24.73
2023-05-06T16:14:51.584Z,24.73
2023-05-06T16:17:17.934Z,24.68
2023-05-06T16:19:44.276Z,24.50
2023-05-06T16:22:10.673Z,24.28
2023-05-06T16:24:37.073Z,24.10
2023-05-06T16:27:03.463Z,23.90
2023-05-06T16:29:29.802Z,23.81
2023-05-06T16:31:56.234Z,23.59
2023-05-06T16:34:22.734Z,23.60
2023-05-06T16:36:49.094Z,23.61
2023-05-06T16:39:15.479Z,23.62
2023-05-06T16:41:41.884Z,23.68
2023-05-06T16:44:08.252Z,23.71
2023-05-06T16:46:34.644Z,23.50
2023-05-06T16:49:01.072Z,23.51
2023-05-06T16:51:27.469Z,23.47
2023-05-06T16:53:53.819Z,23.46
2023-05-06T16:56:20.179Z,23.30
2023-05-06T16:58:46.533Z,23.31
2023-05-06T17:01:12.968Z,23.33
2023-05-06T17:03:39.442Z,23.20
2023-05-06T17:06:05.828Z,23.23
2023-05-06T17:08:36.161Z,23.21
2023-05-06T17:11:04.608Z,23.20
2023-05-06T17:13:31.635Z,23.18
2023-05-06T17:15:58.052Z,23.16
2023-05-06T17:18:24.456Z,23.08
2023-05-06T17:20:56.059Z,23.10
2023-05-06T17:23:23.415Z,23.08
2023-05-06T17:25:49.793Z,23.14
2023-05-06T17:28:18.041Z,23.14
2023-05-06T17:30:45.053Z,23.07
2023-05-06T17:33:11.463Z,23.17
2023-05-06T17:35:37.864Z,23.23
2023-05-06T17:38:04.221Z,23.25
2023-05-06T17:40:30.560Z,23.25
2023-05-06T17:42:56.893Z,23.19
2023-05-06T17:45:23.268Z,23.13
2023-05-06T17:47:49.639Z,23.00
2023-05-06T17:50:16.002Z,23.06
2023-05-06T17:52:42.447Z,23.04
2023-05-06T17:55:16.279Z,22.97
2023-05-06T17:57:43.591Z,22.90
2023-05-06T18:00:09.929Z,22.87
2023-05-06T18:02:36.559Z,22.77
2023-05-06T18:05:03.057Z,22.66
2023-05-06T18:07:29.398Z,22.59
2023-05-06T18:09:55.733Z,22.53
2023-05-06T18:12:22.143Z,22.52
2023-05-06T18:14:48.501Z,22.50
2023-05-06T18:17:14.882Z,22.43
2023-05-06T18:19:41.274Z,22.44
2023-05-06T18:22:07.673Z,22.36
2023-05-06T18:24:34.023Z,22.29
2023-05-06T18:27:00.399Z,22.25
2023-05-06T18:29:26.785Z,22.22
2023-05-06T18:31:53.202Z,22.14
2023-05-06T18:34:19.575Z,22.09
2023-05-06T18:36:45.974Z,21.99
2023-05-06T18:39:12.311Z,21.94
2023-05-06T18:41:38.708Z,21.82
2023-05-06T18:44:05.151Z,21.64
2023-05-06T18:46:31.538Z,21.61
2023-05-06T18:48:57.889Z,21.65
2023-05-06T18:51:24.289Z,21.62
2023-05-06T18:53:50.747Z,21.56
2023-05-06T18:56:17.117Z,21.61
2023-05-06T18:58:43.518Z,21.56
2023-05-06T19:01:09.951Z,21.48
2023-05-06T19:03:36.366Z,21.44
2023-05-06T19:06:02.758Z,21.45
2023-05-06T19:08:29.158Z,21.43
2023-05-06T19:10:55.547Z,21.44
2023-05-06T19:13:22.048Z,21.44
2023-05-06T19:15:48.574Z,21.47
2023-05-06T19:18:15.039Z,21.44
2023-05-06T19:20:41.584Z,21.33
2023-05-06T19:23:07.978Z,21.34
2023-05-06T19:25:34.328Z,21.29
2023-05-06T19:28:00.726Z,21.26
2023-05-06T19:30:27.136Z,21.21
2023-05-06T19:32:54.852Z,21.13
2023-05-06T19:35:21.916Z,21.02
2023-05-06T19:37:48.305Z,20.98
2023-05-06T19:40:14.768Z,20.92
2023-05-06T19:42:41.108Z,20.90
2023-05-06T19:45:07.595Z,20.78
2023-05-06T19:47:34.192Z,20.66
2023-05-06T19:50:00.620Z,20.63
2023-05-06T19:52:26.970Z,20.64
2023-05-06T19:54:54.391Z,20.69
2023-05-06T19:57:20.840Z,20.61
2023-05-06T19:59:47.317Z,20.50
2023-05-06T20:02:13.713Z,20.41
2023-05-06T20:04:40.074Z,20.38
2023-05-06T20:07:06.462Z,20.36
2023-05-06T20:09:32.851Z,20.37
2023-05-06T20:11:59.201Z,20.27
2023-05-06T20:14:25.600Z,20.21
2023-05-06T20:16:51.952Z,20.14
2023-05-06T20:19:18.443Z,20.18
2023-05-06T20:21:44.848Z,20.19
2023-05-06T20:24:11.243Z,20.19
2023-05-06T20:26:37.622Z,20.11
2023-05-06T20:29:03.999Z,20.04
2023-05-06T20:31:30.426Z,20.03
2023-05-06T20:33:56.847Z,20.03
2023-05-06T20:36:23.170Z,20.02
2023-05-06T20:38:49.508Z,20.02
2023-05-06T20:41:15.839Z,19.97
2023-05-06T20:43:42.236Z,19.97
2023-05-06T20:46:08.759Z,19.93
2023-05-06T20:48:35.184Z,19.95
2023-05-06T20:51:01.534Z,19.89
2023-05-06T20:53:27.916Z,19.88
2023-05-06T20:55:54.379Z,19.86
2023-05-06T20:58:20.771Z,19.85
2023-05-06T21:00:47.144Z,19.83
2023-05-06T21:03:13.671Z,19.87
2023-05-06T21:05:40.202Z,19.82
2023-05-06T21:08:06.597Z,19.77
2023-05-06T21:10:32.941Z,19.73
2023-05-06T21:12:59.325Z,19.59
2023-05-06T21:15:25.733Z,19.50
2023-05-06T21:17:52.215Z,19.50
2023-05-06T21:20:18.644Z,19.53
2023-05-06T21:22:45.092Z,19.61
2023-05-06T21:25:11.669Z,19.66
2023-05-06T21:27:38.183Z,19.67
2023-05-06T21:30:04.568Z,19.65
2023-05-06T21:32:31.001Z,19.57
2023-05-06T21:34:57.403Z,19.55
2023-05-06T21:37:23.752Z,19.61
2023-05-06T21:39:50.137Z,19.65
2023-05-06T21:42:16.478Z,19.66
2023-05-06T21:44:42.943Z,19.62
2023-05-06T21:47:09.321Z,19.54
2023-05-06T21:49:35.723Z,19.55
2023-05-06T21:52:02.081Z,19.57
2023-05-06T21:54:28.419Z,19.55
2023-05-06T21:56:54.760Z,19.56
2023-05-06T21:59:21.107Z,19.52
2023-05-06T22:01:47.464Z,19.50
2023-05-06T22:04:13.851Z,19.45
2023-05-06T22:06:40.328Z,19.43
2023-05-06T22:09:06.690Z,19.44
2023-05-06T22:11:33.067Z,19.43
2023-05-06T22:13:59.398Z,19.39
2023-05-06T22:16:25.804Z,19.40
2023-05-06T22:18:52.207Z,19.39
2023-05-06T22:21:18.567Z,19.37
2023-05-06T22:23:44.934Z,19.31
2023-05-06T22:26:11.732Z,19.29
2023-05-06T22:28:38.101Z,19.26
2023-05-06T22:31:04.494Z,19.26
2023-05-06T22:33:30.894Z,19.27
2023-05-06T22:35:57.279Z,19.25
2023-05-06T22:38:23.622Z,19.20
2023-05-06T22:40:50.024Z,19.19
2023-05-06T22:43:16.374Z,19.12
2023-05-06T22:45:42.787Z,19.11
2023-05-06T22:48:09.261Z,19.11
2023-05-06T22:50:35.675Z,19.10
2023-05-06T22:53:10.379Z,19.13
2023-05-06T22:55:40.344Z,19.09
2023-05-06T22:58:06.751Z,19.06
2023-05-06T23:00:33.123Z,19.07
2023-05-06T23:02:59.505Z,18.98
2023-05-06T23:05:25.890Z,18.84
2023-05-06T23:07:52.227Z,18.76
2023-05-06T23:10:18.605Z,18.69
2023-05-06T23:12:45.086Z,18.71
2023-05-06T23:15:11.691Z,18.71
2023-05-06T23:17:38.252Z,18.68
2023-05-06T23:20:04.709Z,18.71
2023-05-06T23:22:31.072Z,18.75
2023-05-06T23:24:57.447Z,18.81
2023-05-06T23:27:23.833Z,18.84
2023-05-06T23:29:50.182Z,18.84
2023-05-06T23:32:16.546Z,18.85
2023-05-06T23:34:42.918Z,18.82
2023-05-06T23:37:09.282Z,18.76
2023-05-06T23:39:35.624Z,18.76
2023-05-06T23:42:01.982Z,18.73
2023-05-06T23:44:28.369Z,18.71
2023-05-06T23:46:54.792Z,18.70
2023-05-06T23:49:21.177Z,18.67
2023-05-06T23:51:47.540Z,18.69
2023-05-06T23:54:13.888Z,18.70
2023-05-06T23:56:40.279Z,18.66
2023-05-06T23:59:06.632Z,18.53
